sensor_id;sensor_type;location;lat;lon;timestamp;P1;durP1;ratioP1;P2;durP2;ratioP2
16075;SDS011;8142;48.242;11.644;2023-04-03T00:02:18;6.77;;;5.13;;
16075;SDS011;8142;48.242;11.644;2023-04-03T00:04:44;8.40;;;5.10;;
16075;SDS011;8142;48.242;11.644;2023-04-03T00:07:10;7.20;;;5.00;;
16075;SDS011;8142;48.242;11.644;2023-04-03T00:09:37;5.73;;;4.80;;
16075;SDS011;8142;48.242;11.644;2023-04-03T00:12:03;7.20;;;5.50;;
16075;SDS011;8142;48.242;11.644;2023-04-03T00:14:29;6.00;;;5.17;;
16075;SDS011;8142;48.242;11.644;2023-04-03T00:16:55;7.63;;;5.27;;
16075;SDS011;8142;48.242;11.644;2023-04-03T00:19:21;7.20;;;5.07;;
16075;SDS011;8142;48.242;11.644;2023-04-03T00:21:47;8.43;;;5.87;;
16075;SDS011;8142;48.242;11.644;2023-04-03T00:24:13;8.97;;;5.87;;
16075;SDS011;8142;48.242;11.644;2023-04-03T00:26:39;8.90;;;4.60;;
16075;SDS011;8142;48.242;11.644;2023-04-03T00:29:05;8.13;;;5.40;;
16075;SDS011;8142;48.242;11.644;2023-04-03T00:31:31;6.63;;;5.07;;
16075;SDS011;8142;48.242;11.644;2023-04-03T00:33:57;6.47;;;5.00;;
16075;SDS011;8142;48.242;11.644;2023-04-03T00:36:23;6.17;;;5.07;;
16075;SDS011;8142;48.242;11.644;2023-04-03T00:38:49;6.63;;;4.83;;
16075;SDS011;8142;48.242;11.644;2023-04-03T00:41:16;6.80;;;5.03;;
16075;SDS011;8142;48.242;11.644;2023-04-03T00:43:42;7.10;;;5.10;;
16075;SDS011;8142;48.242;11.644;2023-04-03T00:46:07;7.33;;;5.00;;
16075;SDS011;8142;48.242;11.644;2023-04-03T00:48:46;6.97;;;4.67;;
16075;SDS011;8142;48.242;11.644;2023-04-03T00:51:14;7.60;;;5.20;;
16075;SDS011;8142;48.242;11.644;2023-04-03T00:53:46;6.87;;;4.90;;
16075;SDS011;8142;48.242;11.644;2023-04-03T00:56:16;6.40;;;4.77;;
16075;SDS011;8142;48.242;11.644;2023-04-03T01:01:18;6.03;;;4.47;;
16075;SDS011;8142;48.242;11.644;2023-04-03T01:03:48;6.77;;;4.43;;
16075;SDS011;8142;48.242;11.644;2023-04-03T01:06:14;5.27;;;4.27;;
16075;SDS011;8142;48.242;11.644;2023-04-03T01:08:42;5.20;;;4.30;;
16075;SDS011;8142;48.242;11.644;2023-04-03T01:11:09;6.03;;;4.50;;
16075;SDS011;8142;48.242;11.644;2023-04-03T01:13:35;5.67;;;4.60;;
16075;SDS011;8142;48.242;11.644;2023-04-03T01:16:01;5.00;;;4.33;;
16075;SDS011;8142;48.242;11.644;2023-04-03T01:18:28;7.53;;;4.30;;
16075;SDS011;8142;48.242;11.644;2023-04-03T01:21:16;6.93;;;4.73;;
16075;SDS011;8142;48.242;11.644;2023-04-03T01:24:08;7.00;;;5.00;;
16075;SDS011;8142;48.242;11.644;2023-04-03T01:26:40;6.23;;;4.30;;
16075;SDS011;8142;48.242;11.644;2023-04-03T01:29:06;5.47;;;4.27;;
16075;SDS011;8142;48.242;11.644;2023-04-03T01:34:04;4.97;;;3.87;;
16075;SDS011;8142;48.242;11.644;2023-04-03T01:36:30;5.83;;;4.07;;
16075;SDS011;8142;48.242;11.644;2023-04-03T01:38:57;5.60;;;4.10;;
16075;SDS011;8142;48.242;11.644;2023-04-03T01:41:24;5.30;;;4.03;;
16075;SDS011;8142;48.242;11.644;2023-04-03T01:43:51;5.40;;;4.03;;
16075;SDS011;8142;48.242;11.644;2023-04-03T01:46:17;5.00;;;3.97;;
16075;SDS011;8142;48.242;11.644;2023-04-03T01:48:45;5.13;;;3.83;;
16075;SDS011;8142;48.242;11.644;2023-04-03T01:51:11;4.67;;;4.00;;
16075;SDS011;8142;48.242;11.644;2023-04-03T01:53:37;5.00;;;4.10;;
16075;SDS011;8142;48.242;11.644;2023-04-03T01:56:03;4.13;;;3.73;;
16075;SDS011;8142;48.242;11.644;2023-04-03T01:58:29;5.33;;;3.50;;
16075;SDS011;8142;48.242;11.644;2023-04-03T02:00:55;4.50;;;4.07;;
16075;SDS011;8142;48.242;11.644;2023-04-03T02:03:21;4.00;;;3.57;;
16075;SDS011;8142;48.242;11.644;2023-04-03T02:05:47;4.47;;;3.70;;
16075;SDS011;8142;48.242;11.644;2023-04-03T02:08:13;4.30;;;3.40;;
16075;SDS011;8142;48.242;11.644;2023-04-03T02:10:39;4.10;;;3.70;;
16075;SDS011;8142;48.242;11.644;2023-04-03T02:13:05;5.07;;;3.70;;
16075;SDS011;8142;48.242;11.644;2023-04-03T02:15:31;4.37;;;3.37;;
16075;SDS011;8142;48.242;11.644;2023-04-03T02:17:57;4.40;;;3.30;;
16075;SDS011;8142;48.242;11.644;2023-04-03T02:20:23;6.17;;;3.67;;
16075;SDS011;8142;48.242;11.644;2023-04-03T02:22:49;4.63;;;3.50;;
16075;SDS011;8142;48.242;11.644;2023-04-03T02:25:14;4.13;;;3.37;;
16075;SDS011;8142;48.242;11.644;2023-04-03T02:27:41;3.63;;;3.33;;
16075;SDS011;8142;48.242;11.644;2023-04-03T02:30:06;3.70;;;2.97;;
16075;SDS011;8142;48.242;11.644;2023-04-03T02:32:34;4.77;;;3.40;;
16075;SDS011;8142;48.242;11.644;2023-04-03T02:35:00;6.10;;;3.30;;
16075;SDS011;8142;48.242;11.644;2023-04-03T02:37:26;4.50;;;3.40;;
16075;SDS011;8142;48.242;11.644;2023-04-03T02:39:52;3.50;;;3.10;;
16075;SDS011;8142;48.242;11.644;2023-04-03T02:42:17;4.03;;;3.27;;
16075;SDS011;8142;48.242;11.644;2023-04-03T02:44:43;4.40;;;2.97;;
16075;SDS011;8142;48.242;11.644;2023-04-03T02:47:10;3.80;;;3.37;;
16075;SDS011;8142;48.242;11.644;2023-04-03T02:49:35;3.73;;;2.77;;
16075;SDS011;8142;48.242;11.644;2023-04-03T02:52:01;3.97;;;3.17;;
16075;SDS011;8142;48.242;11.644;2023-04-03T02:54:27;3.60;;;3.10;;
16075;SDS011;8142;48.242;11.644;2023-04-03T02:56:56;3.67;;;2.90;;
16075;SDS011;8142;48.242;11.644;2023-04-03T02:59:23;4.23;;;3.00;;
16075;SDS011;8142;48.242;11.644;2023-04-03T03:01:48;4.90;;;3.10;;
16075;SDS011;8142;48.242;11.644;2023-04-03T03:04:15;3.33;;;2.90;;
16075;SDS011;8142;48.242;11.644;2023-04-03T03:06:41;3.30;;;3.00;;
16075;SDS011;8142;48.242;11.644;2023-04-03T03:09:07;3.97;;;3.13;;
16075;SDS011;8142;48.242;11.644;2023-04-03T03:11:33;3.10;;;2.80;;
16075;SDS011;8142;48.242;11.644;2023-04-03T03:13:58;4.30;;;3.07;;
16075;SDS011;8142;48.242;11.644;2023-04-03T03:16:24;3.33;;;2.83;;
16075;SDS011;8142;48.242;11.644;2023-04-03T03:18:50;4.90;;;3.07;;
16075;SDS011;8142;48.242;11.644;2023-04-03T03:21:16;3.60;;;2.90;;
16075;SDS011;8142;48.242;11.644;2023-04-03T03:23:42;2.97;;;2.67;;
16075;SDS011;8142;48.242;11.644;2023-04-03T03:26:09;3.63;;;2.90;;
16075;SDS011;8142;48.242;11.644;2023-04-03T03:28:36;3.43;;;2.83;;
16075;SDS011;8142;48.242;11.644;2023-04-03T03:31:03;4.47;;;3.20;;
16075;SDS011;8142;48.242;11.644;2023-04-03T03:33:30;4.13;;;3.03;;
16075;SDS011;8142;48.242;11.644;2023-04-03T03:35:56;5.73;;;3.20;;
16075;SDS011;8142;48.242;11.644;2023-04-03T03:38:22;3.50;;;2.70;;
16075;SDS011;8142;48.242;11.644;2023-04-03T03:40:48;3.77;;;3.07;;
16075;SDS011;8142;48.242;11.644;2023-04-03T03:43:15;4.37;;;3.13;;
16075;SDS011;8142;48.242;11.644;2023-04-03T03:45:41;4.47;;;3.30;;
16075;SDS011;8142;48.242;11.644;2023-04-03T03:48:07;3.50;;;2.93;;
16075;SDS011;8142;48.242;11.644;2023-04-03T03:50:34;3.27;;;2.97;;
16075;SDS011;8142;48.242;11.644;2023-04-03T03:53:00;3.70;;;3.23;;
16075;SDS011;8142;48.242;11.644;2023-04-03T03:55:26;5.30;;;4.10;;
16075;SDS011;8142;48.242;11.644;2023-04-03T03:57:52;8.10;;;4.37;;
16075;SDS011;8142;48.242;11.644;2023-04-03T04:00:18;4.83;;;3.50;;
16075;SDS011;8142;48.242;11.644;2023-04-03T04:02:44;4.03;;;3.23;;
16075;SDS011;8142;48.242;11.644;2023-04-03T04:05:11;4.50;;;3.53;;
16075;SDS011;8142;48.242;11.644;2023-04-03T04:07:36;4.10;;;3.30;;
16075;SDS011;8142;48.242;11.644;2023-04-03T04:10:02;4.13;;;3.40;;
16075;SDS011;8142;48.242;11.644;2023-04-03T04:12:29;4.27;;;3.23;;
16075;SDS011;8142;48.242;11.644;2023-04-03T04:14:55;5.93;;;4.03;;
16075;SDS011;8142;48.242;11.644;2023-04-03T04:17:21;4.57;;;3.77;;
16075;SDS011;8142;48.242;11.644;2023-04-03T04:19:47;4.53;;;3.50;;
16075;SDS011;8142;48.242;11.644;2023-04-03T04:22:13;4.10;;;3.53;;
16075;SDS011;8142;48.242;11.644;2023-04-03T04:24:38;4.53;;;3.57;;
16075;SDS011;8142;48.242;11.644;2023-04-03T04:27:04;5.83;;;4.23;;
16075;SDS011;8142;48.242;11.644;2023-04-03T04:29:30;4.30;;;3.83;;
16075;SDS011;8142;48.242;11.644;2023-04-03T04:32:03;4.00;;;3.33;;
16075;SDS011;8142;48.242;11.644;2023-04-03T04:34:29;4.20;;;3.43;;
16075;SDS011;8142;48.242;11.644;2023-04-03T04:36:55;4.73;;;3.30;;
16075;SDS011;8142;48.242;11.644;2023-04-03T04:39:21;4.70;;;3.90;;
16075;SDS011;8142;48.242;11.644;2023-04-03T04:41:47;5.27;;;3.70;;
16075;SDS011;8142;48.242;11.644;2023-04-03T04:44:13;4.20;;;3.70;;
16075;SDS011;8142;48.242;11.644;2023-04-03T04:46:38;6.17;;;3.60;;
16075;SDS011;8142;48.242;11.644;2023-04-03T04:49:04;5.73;;;3.40;;
16075;SDS011;8142;48.242;11.644;2023-04-03T04:51:30;4.47;;;3.60;;
16075;SDS011;8142;48.242;11.644;2023-04-03T04:53:56;5.83;;;3.70;;
16075;SDS011;8142;48.242;11.644;2023-04-03T04:56:22;6.43;;;3.57;;
16075;SDS011;8142;48.242;11.644;2023-04-03T04:58:48;4.50;;;3.60;;
16075;SDS011;8142;48.242;11.644;2023-04-03T05:01:14;4.60;;;3.63;;
16075;SDS011;8142;48.242;11.644;2023-04-03T05:03:40;4.37;;;3.50;;
16075;SDS011;8142;48.242;11.644;2023-04-03T05:06:06;6.53;;;3.80;;
16075;SDS011;8142;48.242;11.644;2023-04-03T05:08:32;6.10;;;3.80;;
16075;SDS011;8142;48.242;11.644;2023-04-03T05:10:58;5.83;;;3.40;;
16075;SDS011;8142;48.242;11.644;2023-04-03T05:13:24;5.37;;;3.97;;
16075;SDS011;8142;48.242;11.644;2023-04-03T05:15:50;4.67;;;3.67;;
16075;SDS011;8142;48.242;11.644;2023-04-03T05:18:15;4.53;;;3.37;;
16075;SDS011;8142;48.242;11.644;2023-04-03T05:20:41;4.20;;;3.63;;
16075;SDS011;8142;48.242;11.644;2023-04-03T05:23:09;4.77;;;3.63;;
16075;SDS011;8142;48.242;11.644;2023-04-03T05:25:37;4.60;;;3.50;;
16075;SDS011;8142;48.242;11.644;2023-04-03T05:28:03;4.00;;;3.50;;
16075;SDS011;8142;48.242;11.644;2023-04-03T05:30:29;7.83;;;4.00;;
16075;SDS011;8142;48.242;11.644;2023-04-03T05:32:55;5.97;;;3.90;;
16075;SDS011;8142;48.242;11.644;2023-04-03T05:35:21;5.97;;;4.03;;
16075;SDS011;8142;48.242;11.644;2023-04-03T05:37:47;3.80;;;3.40;;
16075;SDS011;8142;48.242;11.644;2023-04-03T05:40:13;7.37;;;5.90;;
16075;SDS011;8142;48.242;11.644;2023-04-03T05:42:39;5.57;;;4.17;;
16075;SDS011;8142;48.242;11.644;2023-04-03T05:45:05;6.07;;;4.53;;
16075;SDS011;8142;48.242;11.644;2023-04-03T05:47:31;4.13;;;3.73;;
16075;SDS011;8142;48.242;11.644;2023-04-03T05:49:57;5.87;;;3.80;;
16075;SDS011;8142;48.242;11.644;2023-04-03T05:52:25;5.07;;;3.73;;
16075;SDS011;8142;48.242;11.644;2023-04-03T05:54:54;6.83;;;3.77;;
16075;SDS011;8142;48.242;11.644;2023-04-03T05:57:20;4.70;;;3.97;;
16075;SDS011;8142;48.242;11.644;2023-04-03T05:59:46;6.17;;;3.97;;
16075;SDS011;8142;48.242;11.644;2023-04-03T06:02:13;5.40;;;3.90;;
16075;SDS011;8142;48.242;11.644;2023-04-03T06:04:40;4.77;;;3.80;;
16075;SDS011;8142;48.242;11.644;2023-04-03T06:07:06;5.47;;;4.00;;
16075;SDS011;8142;48.242;11.644;2023-04-03T06:09:36;4.93;;;3.97;;
16075;SDS011;8142;48.242;11.644;2023-04-03T06:12:02;4.67;;;3.90;;
16075;SDS011;8142;48.242;11.644;2023-04-03T06:14:27;5.53;;;4.10;;
16075;SDS011;8142;48.242;11.644;2023-04-03T06:16:53;5.80;;;3.87;;
16075;SDS011;8142;48.242;11.644;2023-04-03T06:19:20;6.67;;;4.13;;
16075;SDS011;8142;48.242;11.644;2023-04-03T06:21:46;5.00;;;3.93;;
16075;SDS011;8142;48.242;11.644;2023-04-03T06:24:14;5.47;;;3.90;;
16075;SDS011;8142;48.242;11.644;2023-04-03T06:26:41;5.57;;;3.97;;
16075;SDS011;8142;48.242;11.644;2023-04-03T06:29:08;6.67;;;4.40;;
16075;SDS011;8142;48.242;11.644;2023-04-03T06:31:34;4.70;;;3.97;;
16075;SDS011;8142;48.242;11.644;2023-04-03T06:34:01;6.87;;;4.50;;
16075;SDS011;8142;48.242;11.644;2023-04-03T06:36:28;6.17;;;4.37;;
16075;SDS011;8142;48.242;11.644;2023-04-03T06:38:55;10.87;;;4.83;;
16075;SDS011;8142;48.242;11.644;2023-04-03T06:41:21;5.33;;;4.27;;
16075;SDS011;8142;48.242;11.644;2023-04-03T06:43:47;5.90;;;4.47;;
16075;SDS011;8142;48.242;11.644;2023-04-03T06:46:20;6.03;;;4.67;;
16075;SDS011;8142;48.242;11.644;2023-04-03T06:48:47;5.73;;;4.40;;
16075;SDS011;8142;48.242;11.644;2023-04-03T06:51:15;6.33;;;4.37;;
16075;SDS011;8142;48.242;11.644;2023-04-03T06:53:46;7.37;;;4.80;;
16075;SDS011;8142;48.242;11.644;2023-04-03T06:56:13;5.10;;;4.40;;
16075;SDS011;8142;48.242;11.644;2023-04-03T06:58:40;7.87;;;4.90;;
16075;SDS011;8142;48.242;11.644;2023-04-03T07:01:07;6.57;;;5.10;;
16075;SDS011;8142;48.242;11.644;2023-04-03T07:03:34;6.37;;;4.73;;
16075;SDS011;8142;48.242;11.644;2023-04-03T07:06:01;7.97;;;4.47;;
16075;SDS011;8142;48.242;11.644;2023-04-03T07:08:27;6.60;;;5.03;;
16075;SDS011;8142;48.242;11.644;2023-04-03T07:10:54;8.07;;;4.93;;
16075;SDS011;8142;48.242;11.644;2023-04-03T07:13:20;6.07;;;4.73;;
16075;SDS011;8142;48.242;11.644;2023-04-03T07:15:45;6.30;;;4.53;;
16075;SDS011;8142;48.242;11.644;2023-04-03T07:18:11;7.90;;;4.97;;
16075;SDS011;8142;48.242;11.644;2023-04-03T07:20:38;7.67;;;4.40;;
16075;SDS011;8142;48.242;11.644;2023-04-03T07:23:04;7.70;;;5.27;;
16075;SDS011;8142;48.242;11.644;2023-04-03T07:25:30;9.63;;;4.60;;
16075;SDS011;8142;48.242;11.644;2023-04-03T07:27:57;7.60;;;4.90;;
16075;SDS011;8142;48.242;11.644;2023-04-03T07:30:23;7.07;;;5.10;;
16075;SDS011;8142;48.242;11.644;2023-04-03T07:32:48;7.30;;;4.60;;
16075;SDS011;8142;48.242;11.644;2023-04-03T07:35:15;8.17;;;5.43;;
16075;SDS011;8142;48.242;11.644;2023-04-03T07:37:41;6.83;;;5.17;;
16075;SDS011;8142;48.242;11.644;2023-04-03T07:40:07;8.30;;;5.50;;
16075;SDS011;8142;48.242;11.644;2023-04-03T07:42:34;7.73;;;5.43;;
16075;SDS011;8142;48.242;11.644;2023-04-03T07:45:02;8.53;;;5.60;;
16075;SDS011;8142;48.242;11.644;2023-04-03T07:47:28;5.77;;;4.87;;
16075;SDS011;8142;48.242;11.644;2023-04-03T07:49:54;6.83;;;5.00;;
16075;SDS011;8142;48.242;11.644;2023-04-03T07:52:22;9.30;;;5.17;;
16075;SDS011;8142;48.242;11.644;2023-04-03T07:54:49;6.90;;;5.30;;
16075;SDS011;8142;48.242;11.644;2023-04-03T07:57:14;6.63;;;4.97;;
16075;SDS011;8142;48.242;11.644;2023-04-03T07:59:40;7.70;;;5.30;;
16075;SDS011;8142;48.242;11.644;2023-04-03T08:02:11;7.07;;;5.13;;
16075;SDS011;8142;48.242;11.644;2023-04-03T08:04:37;10.07;;;5.20;;
16075;SDS011;8142;48.242;11.644;2023-04-03T08:07:03;6.53;;;5.37;;
16075;SDS011;8142;48.242;11.644;2023-04-03T08:09:29;5.87;;;5.13;;
16075;SDS011;8142;48.242;11.644;2023-04-03T08:11:57;6.97;;;4.93;;
16075;SDS011;8142;48.242;11.644;2023-04-03T08:14:23;7.73;;;5.10;;
16075;SDS011;8142;48.242;11.644;2023-04-03T08:16:49;7.17;;;5.20;;
16075;SDS011;8142;48.242;11.644;2023-04-03T08:19:15;7.57;;;5.40;;
16075;SDS011;8142;48.242;11.644;2023-04-03T08:21:43;8.30;;;5.10;;
16075;SDS011;8142;48.242;11.644;2023-04-03T08:24:10;5.73;;;5.00;;
16075;SDS011;8142;48.242;11.644;2023-04-03T08:26:36;6.07;;;5.17;;
16075;SDS011;8142;48.242;11.644;2023-04-03T08:29:02;7.37;;;4.90;;
16075;SDS011;8142;48.242;11.644;2023-04-03T08:31:28;8.73;;;5.33;;
16075;SDS011;8142;48.242;11.644;2023-04-03T08:33:54;7.17;;;4.77;;
16075;SDS011;8142;48.242;11.644;2023-04-03T08:36:22;7.13;;;5.17;;
16075;SDS011;8142;48.242;11.644;2023-04-03T08:38:53;6.73;;;4.90;;
16075;SDS011;8142;48.242;11.644;2023-04-03T08:41:29;5.97;;;4.73;;
16075;SDS011;8142;48.242;11.644;2023-04-03T08:44:14;8.73;;;5.53;;
16075;SDS011;8142;48.242;11.644;2023-04-03T08:49:41;7.43;;;4.97;;
16075;SDS011;8142;48.242;11.644;2023-04-03T08:52:23;8.60;;;4.90;;
16075;SDS011;8142;48.242;11.644;2023-04-03T08:55:23;11.03;;;5.30;;
16075;SDS011;8142;48.242;11.644;2023-04-03T08:58:01;6.80;;;4.70;;
16075;SDS011;8142;48.242;11.644;2023-04-03T09:00:41;6.30;;;5.00;;
16075;SDS011;8142;48.242;11.644;2023-04-03T09:03:18;7.13;;;4.90;;
16075;SDS011;8142;48.242;11.644;2023-04-03T09:05:55;5.40;;;4.37;;
16075;SDS011;8142;48.242;11.644;2023-04-03T09:08:27;5.43;;;4.10;;
16075;SDS011;8142;48.242;11.644;2023-04-03T09:13:50;7.60;;;4.67;;
16075;SDS011;8142;48.242;11.644;2023-04-03T09:19:04;6.70;;;4.50;;
16075;SDS011;8142;48.242;11.644;2023-04-03T09:21:47;6.53;;;4.90;;
16075;SDS011;8142;48.242;11.644;2023-04-03T09:24:14;6.03;;;4.40;;
16075;SDS011;8142;48.242;11.644;2023-04-03T09:26:46;6.03;;;3.93;;
16075;SDS011;8142;48.242;11.644;2023-04-03T09:29:19;5.13;;;4.33;;
16075;SDS011;8142;48.242;11.644;2023-04-03T09:31:49;5.10;;;3.97;;
16075;SDS011;8142;48.242;11.644;2023-04-03T09:34:26;4.90;;;4.10;;
16075;SDS011;8142;48.242;11.644;2023-04-03T09:37:04;6.40;;;4.50;;
16075;SDS011;8142;48.242;11.644;2023-04-03T09:39:50;4.93;;;4.13;;
16075;SDS011;8142;48.242;11.644;2023-04-03T09:42:20;6.67;;;4.40;;
16075;SDS011;8142;48.242;11.644;2023-04-03T09:44:58;4.93;;;3.90;;
16075;SDS011;8142;48.242;11.644;2023-04-03T09:47:26;5.00;;;3.77;;
16075;SDS011;8142;48.242;11.644;2023-04-03T09:52:46;6.07;;;4.10;;
16075;SDS011;8142;48.242;11.644;2023-04-03T09:55:17;7.97;;;4.10;;
16075;SDS011;8142;48.242;11.644;2023-04-03T09:58:00;4.73;;;3.80;;
16075;SDS011;8142;48.242;11.644;2023-04-03T10:00:34;6.03;;;3.90;;
16075;SDS011;8142;48.242;11.644;2023-04-03T10:03:02;6.87;;;4.10;;
16075;SDS011;8142;48.242;11.644;2023-04-03T10:08:11;5.10;;;3.60;;
16075;SDS011;8142;48.242;11.644;2023-04-03T10:10:41;5.90;;;3.83;;
16075;SDS011;8142;48.242;11.644;2023-04-03T10:13:12;5.53;;;3.83;;
16075;SDS011;8142;48.242;11.644;2023-04-03T10:16:06;6.60;;;3.63;;
16075;SDS011;8142;48.242;11.644;2023-04-03T10:21:19;10.13;;;8.30;;
16075;SDS011;8142;48.242;11.644;2023-04-03T10:24:13;5.70;;;5.20;;
16075;SDS011;8142;48.242;11.644;2023-04-03T10:38:00;3.17;;;2.80;;
16075;SDS011;8142;48.242;11.644;2023-04-03T10:40:52;4.67;;;2.90;;
16075;SDS011;8142;48.242;11.644;2023-04-03T10:43:58;3.23;;;2.77;;
16075;SDS011;8142;48.242;11.644;2023-04-03T10:46:49;4.43;;;2.80;;
16075;SDS011;8142;48.242;11.644;2023-04-03T10:54:36;6.10;;;2.70;;
16075;SDS011;8142;48.242;11.644;2023-04-03T10:57:07;5.43;;;2.70;;
16075;SDS011;8142;48.242;11.644;2023-04-03T10:59:36;4.73;;;2.67;;
16075;SDS011;8142;48.242;11.644;2023-04-03T11:02:25;5.20;;;3.00;;
16075;SDS011;8142;48.242;11.644;2023-04-03T11:04:59;4.47;;;3.00;;
16075;SDS011;8142;48.242;11.644;2023-04-03T11:07:37;5.20;;;2.97;;
16075;SDS011;8142;48.242;11.644;2023-04-03T11:10:10;6.13;;;2.70;;
16075;SDS011;8142;48.242;11.644;2023-04-03T11:12:49;3.80;;;2.40;;
16075;SDS011;8142;48.242;11.644;2023-04-03T11:15:21;3.93;;;2.27;;
16075;SDS011;8142;48.242;11.644;2023-04-03T11:20:29;3.53;;;2.30;;
16075;SDS011;8142;48.242;11.644;2023-04-03T11:23:03;5.47;;;2.17;;
16075;SDS011;8142;48.242;11.644;2023-04-03T11:25:49;4.03;;;2.27;;
16075;SDS011;8142;48.242;11.644;2023-04-03T11:28:18;4.00;;;1.90;;
16075;SDS011;8142;48.242;11.644;2023-04-03T11:36:03;3.27;;;2.80;;
16075;SDS011;8142;48.242;11.644;2023-04-03T11:38:35;3.43;;;2.40;;
16075;SDS011;8142;48.242;11.644;2023-04-03T11:41:06;4.73;;;2.50;;
16075;SDS011;8142;48.242;11.644;2023-04-03T11:43:33;5.87;;;2.10;;
16075;SDS011;8142;48.242;11.644;2023-04-03T11:46:05;3.87;;;2.27;;
16075;SDS011;8142;48.242;11.644;2023-04-03T11:53:41;2.67;;;1.97;;
16075;SDS011;8142;48.242;11.644;2023-04-03T12:01:55;3.77;;;2.00;;
16075;SDS011;8142;48.242;11.644;2023-04-03T12:04:24;2.57;;;1.70;;
16075;SDS011;8142;48.242;11.644;2023-04-03T12:29:10;3.50;;;2.10;;
16075;SDS011;8142;48.242;11.644;2023-04-03T12:46:07;3.20;;;2.00;;
16075;SDS011;8142;48.242;11.644;2023-04-03T12:51:09;1.80;;;1.63;;
16075;SDS011;8142;48.242;11.644;2023-04-03T12:53:44;3.03;;;2.07;;
16075;SDS011;8142;48.242;11.644;2023-04-03T12:58:49;2.13;;;1.80;;
16075;SDS011;8142;48.242;11.644;2023-04-03T13:01:17;1.80;;;1.70;;
16075;SDS011;8142;48.242;11.644;2023-04-03T13:04:04;2.40;;;1.90;;
16075;SDS011;8142;48.242;11.644;2023-04-03T13:06:32;2.63;;;1.80;;
16075;SDS011;8142;48.242;11.644;2023-04-03T13:09:03;4.23;;;1.90;;
16075;SDS011;8142;48.242;11.644;2023-04-03T13:11:38;3.33;;;2.10;;
16075;SDS011;8142;48.242;11.644;2023-04-03T13:14:22;5.30;;;2.10;;
16075;SDS011;8142;48.242;11.644;2023-04-03T13:17:02;2.20;;;1.83;;
16075;SDS011;8142;48.242;11.644;2023-04-03T13:19:29;3.97;;;2.00;;
16075;SDS011;8142;48.242;11.644;2023-04-03T13:21:59;3.17;;;2.10;;
16075;SDS011;8142;48.242;11.644;2023-04-03T13:24:30;3.77;;;1.90;;
16075;SDS011;8142;48.242;11.644;2023-04-03T13:26:59;3.70;;;1.97;;
16075;SDS011;8142;48.242;11.644;2023-04-03T13:29:33;3.33;;;1.97;;
16075;SDS011;8142;48.242;11.644;2023-04-03T13:32:01;2.27;;;1.77;;
16075;SDS011;8142;48.242;11.644;2023-04-03T13:34:29;2.80;;;1.90;;
16075;SDS011;8142;48.242;11.644;2023-04-03T13:37:06;2.00;;;1.80;;
16075;SDS011;8142;48.242;11.644;2023-04-03T13:39:44;2.40;;;1.70;;
16075;SDS011;8142;48.242;11.644;2023-04-03T13:42:17;2.53;;;1.80;;
16075;SDS011;8142;48.242;11.644;2023-04-03T13:44:48;3.20;;;1.80;;
16075;SDS011;8142;48.242;11.644;2023-04-03T13:47:37;4.07;;;2.20;;
16075;SDS011;8142;48.242;11.644;2023-04-03T13:52:39;2.13;;;1.60;;
16075;SDS011;8142;48.242;11.644;2023-04-03T13:55:17;2.70;;;1.77;;
16075;SDS011;8142;48.242;11.644;2023-04-03T13:57:54;4.17;;;1.90;;
16075;SDS011;8142;48.242;11.644;2023-04-03T14:00:30;2.30;;;1.73;;
16075;SDS011;8142;48.242;11.644;2023-04-03T14:03:00;6.70;;;1.90;;
16075;SDS011;8142;48.242;11.644;2023-04-03T14:05:26;2.70;;;1.70;;
16075;SDS011;8142;48.242;11.644;2023-04-03T14:07:53;2.13;;;1.50;;
16075;SDS011;8142;48.242;11.644;2023-04-03T14:10:20;3.53;;;1.70;;
16075;SDS011;8142;48.242;11.644;2023-04-03T14:12:46;4.50;;;2.00;;
16075;SDS011;8142;48.242;11.644;2023-04-03T14:15:26;3.67;;;1.73;;
16075;SDS011;8142;48.242;11.644;2023-04-03T14:17:53;3.23;;;1.80;;
16075;SDS011;8142;48.242;11.644;2023-04-03T14:20:22;3.63;;;2.23;;
16075;SDS011;8142;48.242;11.644;2023-04-03T14:22:51;3.83;;;2.27;;
16075;SDS011;8142;48.242;11.644;2023-04-03T14:25:18;2.13;;;1.57;;
16075;SDS011;8142;48.242;11.644;2023-04-03T14:27:47;1.90;;;1.60;;
16075;SDS011;8142;48.242;11.644;2023-04-03T14:30:17;3.43;;;2.00;;
16075;SDS011;8142;48.242;11.644;2023-04-03T14:32:44;3.10;;;2.00;;
16075;SDS011;8142;48.242;11.644;2023-04-03T14:35:11;2.10;;;1.60;;
16075;SDS011;8142;48.242;11.644;2023-04-03T14:37:37;8.30;;;5.57;;
16075;SDS011;8142;48.242;11.644;2023-04-03T14:40:03;16.80;;;9.57;;
16075;SDS011;8142;48.242;11.644;2023-04-03T14:42:34;18.47;;;11.63;;
16075;SDS011;8142;48.242;11.644;2023-04-03T14:45:02;10.37;;;6.80;;
16075;SDS011;8142;48.242;11.644;2023-04-03T14:47:30;4.97;;;3.50;;
16075;SDS011;8142;48.242;11.644;2023-04-03T14:49:57;5.53;;;4.03;;
16075;SDS011;8142;48.242;11.644;2023-04-03T14:52:31;2.80;;;2.27;;
16075;SDS011;8142;48.242;11.644;2023-04-03T14:55:01;3.33;;;3.00;;
16075;SDS011;8142;48.242;11.644;2023-04-03T14:57:29;6.17;;;3.50;;
16075;SDS011;8142;48.242;11.644;2023-04-03T14:59:55;2.70;;;2.27;;
16075;SDS011;8142;48.242;11.644;2023-04-03T15:02:25;4.00;;;2.60;;
16075;SDS011;8142;48.242;11.644;2023-04-03T15:04:54;2.20;;;1.70;;
16075;SDS011;8142;48.242;11.644;2023-04-03T15:07:21;3.27;;;1.87;;
16075;SDS011;8142;48.242;11.644;2023-04-03T15:09:49;3.33;;;2.10;;
16075;SDS011;8142;48.242;11.644;2023-04-03T15:12:15;1.70;;;1.47;;
16075;SDS011;8142;48.242;11.644;2023-04-03T15:14:41;4.47;;;2.73;;
16075;SDS011;8142;48.242;11.644;2023-04-03T15:17:08;5.00;;;3.07;;
16075;SDS011;8142;48.242;11.644;2023-04-03T15:19:40;6.67;;;2.77;;
16075;SDS011;8142;48.242;11.644;2023-04-03T15:22:06;2.17;;;1.97;;
16075;SDS011;8142;48.242;11.644;2023-04-03T15:24:32;2.17;;;1.90;;
16075;SDS011;8142;48.242;11.644;2023-04-03T15:26:58;3.03;;;1.60;;
16075;SDS011;8142;48.242;11.644;2023-04-03T15:29:25;2.97;;;1.40;;
16075;SDS011;8142;48.242;11.644;2023-04-03T15:31:52;2.80;;;1.40;;
16075;SDS011;8142;48.242;11.644;2023-04-03T15:34:18;2.50;;;1.70;;
16075;SDS011;8142;48.242;11.644;2023-04-03T15:36:46;2.20;;;1.53;;
16075;SDS011;8142;48.242;11.644;2023-04-03T15:39:12;5.70;;;1.80;;
16075;SDS011;8142;48.242;11.644;2023-04-03T15:41:38;1.90;;;1.70;;
16075;SDS011;8142;48.242;11.644;2023-04-03T15:44:04;3.13;;;1.70;;
16075;SDS011;8142;48.242;11.644;2023-04-03T15:46:29;3.20;;;1.80;;
16075;SDS011;8142;48.242;11.644;2023-04-03T15:48:55;2.87;;;2.10;;
16075;SDS011;8142;48.242;11.644;2023-04-03T15:51:21;2.03;;;1.57;;
16075;SDS011;8142;48.242;11.644;2023-04-03T15:53:47;2.73;;;1.80;;
16075;SDS011;8142;48.242;11.644;2023-04-03T15:56:16;2.93;;;1.80;;
16075;SDS011;8142;48.242;11.644;2023-04-03T15:58:42;1.90;;;1.60;;
16075;SDS011;8142;48.242;11.644;2023-04-03T16:01:09;2.10;;;1.67;;
16075;SDS011;8142;48.242;11.644;2023-04-03T16:03:35;3.97;;;1.70;;
16075;SDS011;8142;48.242;11.644;2023-04-03T16:06:04;3.23;;;1.80;;
16075;SDS011;8142;48.242;11.644;2023-04-03T16:08:30;7.67;;;4.87;;
16075;SDS011;8142;48.242;11.644;2023-04-03T16:10:56;4.17;;;2.20;;
16075;SDS011;8142;48.242;11.644;2023-04-03T16:13:22;7.00;;;3.60;;
16075;SDS011;8142;48.242;11.644;2023-04-03T16:15:47;3.03;;;2.10;;
16075;SDS011;8142;48.242;11.644;2023-04-03T16:18:14;2.33;;;1.90;;
16075;SDS011;8142;48.242;11.644;2023-04-03T16:20:40;2.93;;;1.90;;
16075;SDS011;8142;48.242;11.644;2023-04-03T16:23:06;3.43;;;2.63;;
16075;SDS011;8142;48.242;11.644;2023-04-03T16:25:32;3.87;;;2.10;;
16075;SDS011;8142;48.242;11.644;2023-04-03T16:27:58;3.10;;;2.80;;
16075;SDS011;8142;48.242;11.644;2023-04-03T16:30:24;3.00;;;1.80;;
16075;SDS011;8142;48.242;11.644;2023-04-03T16:32:50;2.80;;;2.10;;
16075;SDS011;8142;48.242;11.644;2023-04-03T16:35:16;2.97;;;1.90;;
16075;SDS011;8142;48.242;11.644;2023-04-03T16:37:42;3.33;;;2.13;;
16075;SDS011;8142;48.242;11.644;2023-04-03T16:40:08;4.37;;;2.40;;